sensor_id;sensor_type;location;lat;lon;timestamp;pressure;altitude;pressure_sealevel;temperature;humidity
52983;BME280;48698;45.736;13.926;2023-02-11T00:01:41;99385.59;;;-2.11;81.14
52983;BME280;48698;45.736;13.926;2023-02-11T00:06:46;99414.59;;;-1.97;83.02
52983;BME280;48698;45.736;13.926;2023-02-11T00:11:49;99342.81;;;-2.53;84.27
52983;BME280;48698;45.736;13.926;2023-02-11T00:16:53;99236.53;;;-3.35;85.53
52983;BME280;48698;45.736;13.926;2023-02-11T00:21:56;99244.06;;;-3.13;86.39
52983;BME280;48698;45.736;13.926;2023-02-11T00:27:00;99444.34;;;-1.88;87.64
52983;BME280;48698;45.736;13.926;2023-02-11T00:32:04;99107.25;;;-3.75;87.42
52983;BME280;48698;45.736;13.926;2023-02-11T00:37:07;99428.25;;;-2.37;88.57
52983;BME280;48698;45.736;13.926;2023-02-11T00:42:13;99132.97;;;-3.83;90.88
52983;BME280;48698;45.736;13.926;2023-02-11T00:47:17;99421.41;;;-2.02;89.46
52983;BME280;48698;45.736;13.926;2023-02-11T00:52:20;99305.78;;;-2.76;91.26
52983;BME280;48698;45.736;13.926;2023-02-11T00:57:24;99131.66;;;-4.55;96.65
52983;BME280;48698;45.736;13.926;2023-02-11T01:02:33;99422.53;;;-2.85;100.00
52983;BME280;48698;45.736;13.926;2023-02-11T01:07:42;99377.28;;;-3.74;100.00
52983;BME280;48698;45.736;13.926;2023-02-11T01:12:45;99441.63;;;-3.90;100.00
52983;BME280;48698;45.736;13.926;2023-02-11T01:17:58;99265.28;;;-4.64;100.00
52983;BME280;48698;45.736;13.926;2023-02-11T01:23:01;99305.78;;;-4.68;100.00
52983;BME280;48698;45.736;13.926;2023-02-11T01:28:06;99321.56;;;-4.60;100.00
52983;BME280;48698;45.736;13.926;2023-02-11T01:33:09;99162.00;;;-5.28;100.00
52983;BME280;48698;45.736;13.926;2023-02-11T01:38:18;99432.88;;;-3.69;100.00
52983;BME280;48698;45.736;13.926;2023-02-11T01:43:23;99221.88;;;-4.95;100.00
52983;BME280;48698;45.736;13.926;2023-02-11T01:48:34;99318.03;;;-4.64;100.00
52983;BME280;48698;45.736;13.926;2023-02-11T01:53:39;99292.44;;;-4.79;100.00
52983;BME280;48698;45.736;13.926;2023-02-11T01:59:07;99403.22;;;-4.00;100.00
52983;BME280;48698;45.736;13.926;2023-02-11T02:04:17;99348.97;;;-3.93;100.00
52983;BME280;48698;45.736;13.926;2023-02-11T02:09:37;99179.63;;;-4.93;100.00
52983;BME280;48698;45.736;13.926;2023-02-11T02:14:42;99384.56;;;-4.14;100.00
52983;BME280;48698;45.736;13.926;2023-02-11T02:20:09;99403.59;;;-4.15;100.00
52983;BME280;48698;45.736;13.926;2023-02-11T02:25:31;99400.00;;;-4.90;100.00
52983;BME280;48698;45.736;13.926;2023-02-11T02:30:50;99314.69;;;-5.31;100.00
52983;BME280;48698;45.736;13.926;2023-02-11T02:36:15;99178.00;;;-5.87;100.00
52983;BME280;48698;45.736;13.926;2023-02-11T02:41:29;99354.84;;;-4.73;100.00
52983;BME280;48698;45.736;13.926;2023-02-11T02:46:34;99005.41;;;-7.05;100.00
52983;BME280;48698;45.736;13.926;2023-02-11T02:51:51;99371.06;;;-5.02;100.00
52983;BME280;48698;45.736;13.926;2023-02-11T03:02:30;99352.72;;;-4.84;100.00
52983;BME280;48698;45.736;13.926;2023-02-11T03:08:08;99331.97;;;-5.08;100.00
52983;BME280;48698;45.736;13.926;2023-02-11T03:13:15;99149.72;;;-6.49;100.00
52983;BME280;48698;45.736;13.926;2023-02-11T03:18:28;99257.91;;;-6.17;100.00
52983;BME280;48698;45.736;13.926;2023-02-11T03:23:39;99214.84;;;-6.37;100.00
52983;BME280;48698;45.736;13.926;2023-02-11T03:34:05;99179.56;;;-6.14;100.00
52983;BME280;48698;45.736;13.926;2023-02-11T03:39:13;99331.41;;;-4.76;100.00
52983;BME280;48698;45.736;13.926;2023-02-11T03:44:19;99028.06;;;-6.32;100.00
52983;BME280;48698;45.736;13.926;2023-02-11T03:49:25;99117.56;;;-6.57;100.00
52983;BME280;48698;45.736;13.926;2023-02-11T03:54:30;98959.56;;;-7.97;100.00
52983;BME280;48698;45.736;13.926;2023-02-11T03:59:55;99031.88;;;-7.94;100.00
52983;BME280;48698;45.736;13.926;2023-02-11T04:05:00;99314.25;;;-5.88;100.00
52983;BME280;48698;45.736;13.926;2023-02-11T04:10:04;99273.09;;;-6.24;100.00
52983;BME280;48698;45.736;13.926;2023-02-11T04:15:08;99282.72;;;-5.78;100.00
52983;BME280;48698;45.736;13.926;2023-02-11T04:20:12;99074.88;;;-6.68;100.00
52983;BME280;48698;45.736;13.926;2023-02-11T04:25:15;99260.59;;;-6.14;100.00
52983;BME280;48698;45.736;13.926;2023-02-11T04:30:19;99277.81;;;-6.35;100.00
52983;BME280;48698;45.736;13.926;2023-02-11T04:35:23;99259.56;;;-5.97;100.00
52983;BME280;48698;45.736;13.926;2023-02-11T04:40:27;99138.34;;;-6.10;100.00
52983;BME280;48698;45.736;13.926;2023-02-11T04:45:31;99275.00;;;-5.54;100.00
52983;BME280;48698;45.736;13.926;2023-02-11T04:50:35;99101.53;;;-6.92;100.00
52983;BME280;48698;45.736;13.926;2023-02-11T04:55:39;99166.03;;;-6.93;100.00
52983;BME280;48698;45.736;13.926;2023-02-11T05:00:42;99154.63;;;-6.35;100.00
52983;BME280;48698;45.736;13.926;2023-02-11T05:05:46;99218.53;;;-5.88;100.00
52983;BME280;48698;45.736;13.926;2023-02-11T05:10:51;99130.75;;;-5.82;100.00
52983;BME280;48698;45.736;13.926;2023-02-11T05:15:55;99268.84;;;-5.10;100.00
52983;BME280;48698;45.736;13.926;2023-02-11T05:20:58;99062.28;;;-6.83;100.00
52983;BME280;48698;45.736;13.926;2023-02-11T05:26:08;99265.31;;;-5.36;100.00
52983;BME280;48698;45.736;13.926;2023-02-11T05:31:11;99204.41;;;-5.72;100.00
52983;BME280;48698;45.736;13.926;2023-02-11T05:36:17;99261.63;;;-4.95;100.00
52983;BME280;48698;45.736;13.926;2023-02-11T05:41:20;99032.19;;;-6.13;100.00
52983;BME280;48698;45.736;13.926;2023-02-11T05:46:24;99244.00;;;-4.80;100.00
52983;BME280;48698;45.736;13.926;2023-02-11T05:51:27;99041.09;;;-6.05;100.00
52983;BME280;48698;45.736;13.926;2023-02-11T05:56:31;98912.34;;;-6.62;100.00
52983;BME280;48698;45.736;13.926;2023-02-11T06:01:35;99191.31;;;-4.53;100.00
52983;BME280;48698;45.736;13.926;2023-02-11T06:06:46;99225.56;;;-4.10;100.00
52983;BME280;48698;45.736;13.926;2023-02-11T06:11:50;99231.97;;;-3.72;100.00
52983;BME280;48698;45.736;13.926;2023-02-11T06:16:53;99082.31;;;-4.56;100.00
52983;BME280;48698;45.736;13.926;2023-02-11T06:21:57;99153.94;;;-4.33;100.00
52983;BME280;48698;45.736;13.926;2023-02-11T06:27:02;99206.59;;;-3.81;100.00
52983;BME280;48698;45.736;13.926;2023-02-11T06:32:06;99184.53;;;-3.95;100.00
52983;BME280;48698;45.736;13.926;2023-02-11T06:37:34;99261.72;;;-3.31;100.00
52983;BME280;48698;45.736;13.926;2023-02-11T06:42:38;98946.97;;;-5.04;100.00
52983;BME280;48698;45.736;13.926;2023-02-11T06:47:42;99043.59;;;-4.52;100.00
52983;BME280;48698;45.736;13.926;2023-02-11T06:52:46;99132.06;;;-3.85;100.00
52983;BME280;48698;45.736;13.926;2023-02-11T06:57:50;98922.66;;;-5.08;100.00
52983;BME280;48698;45.736;13.926;2023-02-11T07:02:54;99013.06;;;-4.60;100.00
52983;BME280;48698;45.736;13.926;2023-02-11T07:07:58;99096.97;;;-3.71;100.00
52983;BME280;48698;45.736;13.926;2023-02-11T07:13:01;99101.38;;;-3.37;100.00
52983;BME280;48698;45.736;13.926;2023-02-11T07:18:05;99210.91;;;-2.22;100.00
52983;BME280;48698;45.736;13.926;2023-02-11T07:23:08;98944.84;;;-3.64;100.00
52983;BME280;48698;45.736;13.926;2023-02-11T07:28:11;99241.03;;;-1.60;100.00
52983;BME280;48698;45.736;13.926;2023-02-11T07:33:15;99125.69;;;-1.93;100.00
52983;BME280;48698;45.736;13.926;2023-02-11T07:38:19;99117.16;;;-1.86;100.00
52983;BME280;48698;45.736;13.926;2023-02-11T07:43:22;99181.41;;;-1.01;100.00
52983;BME280;48698;45.736;13.926;2023-02-11T07:48:37;99264.47;;;-0.29;100.00
52983;BME280;48698;45.736;13.926;2023-02-11T07:53:56;99269.22;;;0.50;100.00
52983;BME280;48698;45.736;13.926;2023-02-11T07:59:01;99269.88;;;1.00;100.00
52983;BME280;48698;45.736;13.926;2023-02-11T08:04:05;99220.28;;;1.06;97.85
52983;BME280;48698;45.736;13.926;2023-02-11T08:09:14;99262.13;;;1.90;93.46
52983;BME280;48698;45.736;13.926;2023-02-11T08:14:29;99168.44;;;1.58;92.35
52983;BME280;48698;45.736;13.926;2023-02-11T08:19:35;99195.44;;;1.53;90.96
52983;BME280;48698;45.736;13.926;2023-02-11T08:24:39;98944.81;;;0.24;90.00
52983;BME280;48698;45.736;13.926;2023-02-11T08:29:53;99261.31;;;1.96;89.58
52983;BME280;48698;45.736;13.926;2023-02-11T08:34:56;99173.72;;;1.62;88.89
52983;BME280;48698;45.736;13.926;2023-02-11T08:40:10;99254.25;;;3.28;88.34
52983;BME280;48698;45.736;13.926;2023-02-11T08:45:14;99153.59;;;3.33;84.66
52983;BME280;48698;45.736;13.926;2023-02-11T08:50:18;99207.91;;;4.02;81.16
52983;BME280;48698;45.736;13.926;2023-02-11T08:55:21;99247.38;;;4.27;81.37
52983;BME280;48698;45.736;13.926;2023-02-11T09:00:25;99224.59;;;4.07;77.55
52983;BME280;48698;45.736;13.926;2023-02-11T09:05:29;99277.16;;;4.45;78.54
52983;BME280;48698;45.736;13.926;2023-02-11T09:10:32;99177.28;;;3.91;76.43
52983;BME280;48698;45.736;13.926;2023-02-11T09:15:36;99175.50;;;3.72;76.88
52983;BME280;48698;45.736;13.926;2023-02-11T09:20:40;99274.53;;;4.50;75.20
52983;BME280;48698;45.736;13.926;2023-02-11T09:25:45;99256.91;;;4.82;75.15
52983;BME280;48698;45.736;13.926;2023-02-11T09:30:49;99054.53;;;4.17;74.24
52983;BME280;48698;45.736;13.926;2023-02-11T09:36:04;99265.94;;;6.07;71.55
52983;BME280;48698;45.736;13.926;2023-02-11T09:46:30;99257.06;;;7.07;65.08
52983;BME280;48698;45.736;13.926;2023-02-11T09:51:52;99230.50;;;7.18;58.94
52983;BME280;48698;45.736;13.926;2023-02-11T09:56:59;99235.13;;;7.66;56.28
52983;BME280;48698;45.736;13.926;2023-02-11T10:02:17;99267.84;;;7.61;55.86
52983;BME280;48698;45.736;13.926;2023-02-11T10:07:47;99135.47;;;6.42;53.49
52983;BME280;48698;45.736;13.926;2023-02-11T10:18:58;99195.41;;;7.08;54.25
52983;BME280;48698;45.736;13.926;2023-02-11T10:24:10;99261.66;;;8.20;55.27
52983;BME280;48698;45.736;13.926;2023-02-11T10:29:25;99199.25;;;8.07;56.97
52983;BME280;48698;45.736;13.926;2023-02-11T10:34:33;99046.75;;;6.99;55.43
52983;BME280;48698;45.736;13.926;2023-02-11T10:39:43;99240.88;;;8.51;52.14
52983;BME280;48698;45.736;13.926;2023-02-11T10:45:01;99255.78;;;8.56;51.14
52983;BME280;48698;45.736;13.926;2023-02-11T10:50:36;99247.88;;;8.53;50.31
52983;BME280;48698;45.736;13.926;2023-02-11T10:55:49;99195.28;;;8.32;50.05
52983;BME280;48698;45.736;13.926;2023-02-11T11:00:55;99231.19;;;8.50;50.88
52983;BME280;48698;45.736;13.926;2023-02-11T11:06:01;98929.47;;;7.07;49.11
52983;BME280;48698;45.736;13.926;2023-02-11T11:11:10;99220.78;;;8.85;49.25
52983;BME280;48698;45.736;13.926;2023-02-11T11:21:39;99204.25;;;9.17;47.83
52983;BME280;48698;45.736;13.926;2023-02-11T11:26:49;99211.19;;;9.24;46.02
52983;BME280;48698;45.736;13.926;2023-02-11T11:31:55;99065.59;;;8.32;44.09
52983;BME280;48698;45.736;13.926;2023-02-11T11:37:13;99120.91;;;8.47;42.57
52983;BME280;48698;45.736;13.926;2023-02-11T11:42:29;99155.31;;;8.47;42.66
52983;BME280;48698;45.736;13.926;2023-02-11T11:53:23;99187.28;;;8.84;42.83
52983;BME280;48698;45.736;13.926;2023-02-11T11:58:32;99127.22;;;8.40;43.75
52983;BME280;48698;45.736;13.926;2023-02-11T12:14:48;99193.53;;;9.61;43.94
52983;BME280;48698;45.736;13.926;2023-02-11T12:20:25;99049.28;;;8.95;41.80
52983;BME280;48698;45.736;13.926;2023-02-11T12:31:05;99156.75;;;9.48;38.99
52983;BME280;48698;45.736;13.926;2023-02-11T12:36:46;99149.56;;;9.88;41.24
52983;BME280;48698;45.736;13.926;2023-02-11T12:52:54;99133.16;;;10.08;41.77
52983;BME280;48698;45.736;13.926;2023-02-11T12:58:11;99111.50;;;10.24;41.41
52983;BME280;48698;45.736;13.926;2023-02-11T13:03:21;99104.59;;;10.19;41.41
52983;BME280;48698;45.736;13.926;2023-02-11T13:08:34;99062.31;;;10.10;42.93
52983;BME280;48698;45.736;13.926;2023-02-11T13:13:51;99076.28;;;10.18;41.21
52983;BME280;48698;45.736;13.926;2023-02-11T13:30:02;99085.59;;;10.65;39.51
52983;BME280;48698;45.736;13.926;2023-02-11T13:35:35;99084.09;;;10.56;39.10
52983;BME280;48698;45.736;13.926;2023-02-11T13:40:39;98954.88;;;9.92;39.49
52983;BME280;48698;45.736;13.926;2023-02-11T13:45:48;99080.78;;;10.77;38.66
52983;BME280;48698;45.736;13.926;2023-02-11T13:51:04;99034.31;;;10.32;38.28
52983;BME280;48698;45.736;13.926;2023-02-11T13:56:11;99062.44;;;10.70;37.49
52983;BME280;48698;45.736;13.926;2023-02-11T14:01:41;99023.66;;;10.33;36.19
52983;BME280;48698;45.736;13.926;2023-02-11T14:13:04;98985.97;;;10.19;37.15
52983;BME280;48698;45.736;13.926;2023-02-11T14:18:36;99050.75;;;10.45;36.75
52983;BME280;48698;45.736;13.926;2023-02-11T14:23:40;99030.78;;;10.31;37.54
52983;BME280;48698;45.736;13.926;2023-02-11T14:28:47;98999.91;;;9.95;37.45
52983;BME280;48698;45.736;13.926;2023-02-11T14:34:07;99061.94;;;10.25;37.06
52983;BME280;48698;45.736;13.926;2023-02-11T14:44:29;99049.53;;;9.92;37.09
52983;BME280;48698;45.736;13.926;2023-02-11T14:49:36;99045.81;;;9.99;38.64
52983;BME280;48698;45.736;13.926;2023-02-11T14:54:43;99048.81;;;9.85;39.08
52983;BME280;48698;45.736;13.926;2023-02-11T14:59:57;99055.97;;;9.81;39.51
52983;BME280;48698;45.736;13.926;2023-02-11T15:05:25;99014.81;;;9.31;38.65
52983;BME280;48698;45.736;13.926;2023-02-11T15:10:32;98939.69;;;8.60;39.21
52983;BME280;48698;45.736;13.926;2023-02-11T15:15:38;99054.63;;;9.30;40.17
52983;BME280;48698;45.736;13.926;2023-02-11T15:20:42;98954.63;;;8.63;39.83
52983;BME280;48698;45.736;13.926;2023-02-11T15:25:46;99008.06;;;8.81;40.12
52983;BME280;48698;45.736;13.926;2023-02-11T15:36:10;98990.28;;;8.87;39.01
52983;BME280;48698;45.736;13.926;2023-02-11T15:41:34;99003.09;;;8.66;39.60
52983;BME280;48698;45.736;13.926;2023-02-11T15:46:38;99051.94;;;8.95;39.66
52983;BME280;48698;45.736;13.926;2023-02-11T15:51:44;98933.81;;;8.05;39.84
52983;BME280;48698;45.736;13.926;2023-02-11T15:57:01;98861.66;;;7.55;40.43
52983;BME280;48698;45.736;13.926;2023-02-11T16:02:12;98968.56;;;8.31;40.23
52983;BME280;48698;45.736;13.926;2023-02-11T16:13:42;98940.00;;;7.59;40.91
52983;BME280;48698;45.736;13.926;2023-02-11T16:18:36;99054.00;;;7.92;41.71
52983;BME280;48698;45.736;13.926;2023-02-11T16:23:42;99051.75;;;7.69;42.74
52983;BME280;48698;45.736;13.926;2023-02-11T16:28:52;98981.78;;;6.84;44.64
52983;BME280;48698;45.736;13.926;2023-02-11T16:33:55;99020.13;;;7.09;46.38
52983;BME280;48698;45.736;13.926;2023-02-11T16:38:59;98986.53;;;6.61;47.10
52983;BME280;48698;45.736;13.926;2023-02-11T16:44:02;98998.41;;;6.30;49.80
52983;BME280;48698;45.736;13.926;2023-02-11T16:49:15;98766.09;;;5.12;48.92
52983;BME280;48698;45.736;13.926;2023-02-11T16:54:20;98735.22;;;4.45;50.33
52983;BME280;48698;45.736;13.926;2023-02-11T16:59:23;98920.47;;;5.25;53.90
52983;BME280;48698;45.736;13.926;2023-02-11T17:04:29;98753.06;;;4.13;54.31
52983;BME280;48698;45.736;13.926;2023-02-11T17:09:33;99045.25;;;5.13;56.21
52983;BME280;48698;45.736;13.926;2023-02-11T17:14:37;99062.84;;;5.05;56.13
52983;BME280;48698;45.736;13.926;2023-02-11T17:19:40;99089.47;;;4.52;60.22
52983;BME280;48698;45.736;13.926;2023-02-11T17:24:44;99026.59;;;3.80;61.74
52983;BME280;48698;45.736;13.926;2023-02-11T17:29:57;99068.66;;;3.16;65.70
52983;BME280;48698;45.736;13.926;2023-02-11T17:35:01;98968.91;;;2.80;65.21
52983;BME280;48698;45.736;13.926;2023-02-11T17:40:06;99056.38;;;2.98;67.00
52983;BME280;48698;45.736;13.926;2023-02-11T17:45:10;98976.75;;;2.51;68.32
52983;BME280;48698;45.736;13.926;2023-02-11T17:50:15;98936.53;;;2.59;68.35
52983;BME280;48698;45.736;13.926;2023-02-11T17:55:19;98954.94;;;2.78;68.95
52983;BME280;48698;45.736;13.926;2023-02-11T18:00:22;99077.44;;;3.18;72.86
52983;BME280;48698;45.736;13.926;2023-02-11T18:05:26;99057.28;;;3.19;73.59
52983;BME280;48698;45.736;13.926;2023-02-11T18:10:30;99018.75;;;2.80;75.60
52983;BME280;48698;45.736;13.926;2023-02-11T18:15:35;99089.69;;;3.34;73.92
52983;BME280;48698;45.736;13.926;2023-02-11T18:20:39;99094.91;;;3.22;76.47
52983;BME280;48698;45.736;13.926;2023-02-11T18:25:45;99078.22;;;2.76;79.07
52983;BME280;48698;45.736;13.926;2023-02-11T18:30:55;99092.28;;;3.08;81.54
52983;BME280;48698;45.736;13.926;2023-02-11T18:36:03;98763.34;;;1.16;79.28
52983;BME280;48698;45.736;13.926;2023-02-11T18:41:09;99076.56;;;3.24;80.16
52983;BME280;48698;45.736;13.926;2023-02-11T18:46:13;99094.09;;;3.44;80.65
52983;BME280;48698;45.736;13.926;2023-02-11T18:51:17;98958.34;;;2.25;83.36
52983;BME280;48698;45.736;13.926;2023-02-11T18:56:22;99088.81;;;3.28;82.23
52983;BME280;48698;45.736;13.926;2023-02-11T19:01:29;99040.59;;;2.54;84.77
52983;BME280;48698;45.736;13.926;2023-02-11T19:06:35;98809.53;;;1.09;88.70
52983;BME280;48698;45.736;13.926;2023-02-11T19:11:46;99044.88;;;2.36;87.77
52983;BME280;48698;45.736;13.926;2023-02-11T19:16:54;99025.66;;;2.31;88.35
52983;BME280;48698;45.736;13.926;2023-02-11T19:21:58;98749.94;;;0.53;87.93
52983;BME280;48698;45.736;13.926;2023-02-11T19:27:03;99065.81;;;2.30;87.82
52983;BME280;48698;45.736;13.926;2023-02-11T19:32:07;98977.13;;;1.36;90.71
52983;BME280;48698;45.736;13.926;2023-02-11T19:37:11;99079.59;;;1.92;91.18
52983;BME280;48698;45.736;13.926;2023-02-11T19:42:15;99025.69;;;0.96;94.24
52983;BME280;48698;45.736;13.926;2023-02-11T19:47:18;99073.78;;;1.11;91.84
52983;BME280;48698;45.736;13.926;2023-02-11T19:52:23;98968.34;;;0.24;94.05
52983;BME280;48698;45.736;13.926;2023-02-11T19:57:27;99094.69;;;0.26;97.29
52983;BME280;48698;45.736;13.926;2023-02-11T20:02:31;99022.94;;;-0.63;100.00
52983;BME280;48698;45.736;13.926;2023-02-11T20:07:35;98946.16;;;-0.79;100.00
52983;BME280;48698;45.736;13.926;2023-02-11T20:12:38;98957.84;;;-0.53;100.00
52983;BME280;48698;45.736;13.926;2023-02-11T20:17:42;99033.38;;;-0.63;100.00
52983;BME280;48698;45.736;13.926;2023-02-11T20:22:46;99094.28;;;-0.04;100.00
52983;BME280;48698;45.736;13.926;2023-02-11T20:27:49;99002.31;;;-1.03;100.00
52983;BME280;48698;45.736;13.926;2023-02-11T20:32:53;98924.81;;;-1.12;100.00
52983;BME280;48698;45.736;13.926;2023-02-11T20:37:57;99090.94;;;-0.53;100.00
52983;BME280;48698;45.736;13.926;2023-02-11T20:43:00;98822.34;;;-1.67;100.00
52983;BME280;48698;45.736;13.926;2023-02-11T20:48:04;98967.81;;;-1.38;100.00
52983;BME280;48698;45.736;13.926;2023-02-11T20:53:07;99009.75;;;-0.72;100.00
52983;BME280;48698;45.736;13.926;2023-02-11T20:58:12;99021.09;;;-0.70;100.00
52983;BME280;48698;45.736;13.926;2023-02-11T21:03:16;98806.50;;;-2.31;100.00
52983;BME280;48698;45.736;13.926;2023-02-11T21:08:20;98960.56;;;-1.58;100.00
52983;BME280;48698;45.736;13.926;2023-02-11T21:13:23;99068.00;;;-0.73;100.00
52983;BME280;48698;45.736;13.926;2023-02-11T21:18:27;98980.75;;;-0.93;100.00
52983;BME280;48698;45.736;13.926;2023-02-11T21:23:31;99077.56;;;-0.74;100.00
52983;BME280;48698;45.736;13.926;2023-02-11T21:28:35;98792.44;;;-2.41;100.00
52983;BME280;48698;45.736;13.926;2023-02-11T21:33:42;99078.16;;;-1.39;100.00
52983;BME280;48698;45.736;13.926;2023-02-11T21:38:46;98721.34;;;-3.33;100.00
52983;BME280;48698;45.736;13.926;2023-02-11T21:43:50;99070.41;;;-1.35;100.00
52983;BME280;48698;45.736;13.926;2023-02-11T21:48:55;98754.69;;;-3.12;100.00
52983;BME280;48698;45.736;13.926;2023-02-11T21:54:00;99073.25;;;-1.68;100.00
52983;BME280;48698;45.736;13.926;2023-02-11T21:59:04;99081.66;;;-1.37;100.00
52983;BME280;48698;45.736;13.926;2023-02-11T22:04:08;98783.47;;;-3.43;100.00
52983;BME280;48698;45.736;13.926;2023-02-11T22:09:12;98977.13;;;-2.00;100.00
52983;BME280;48698;45.736;13.926;2023-02-11T22:14:36;99086.03;;;-1.36;100.00
52983;BME280;48698;45.736;13.926;2023-02-11T22:19:39;98970.97;;;-2.04;100.00
52983;BME280;48698;45.736;13.926;2023-02-11T22:24:41;98842.00;;;-2.80;100.00
52983;BME280;48698;45.736;13.926;2023-02-11T22:29:44;98744.31;;;-3.12;100.00
52983;BME280;48698;45.736;13.926;2023-02-11T22:34:47;98830.31;;;-2.56;100.00
52983;BME280;48698;45.736;13.926;2023-02-11T22:39:53;99076.91;;;-1.13;100.00
52983;BME280;48698;45.736;13.926;2023-02-11T22:44:56;98786.59;;;-2.76;100.00
52983;BME280;48698;45.736;13.926;2023-02-11T22:50:08;98953.13;;;-2.29;100.00
52983;BME280;48698;45.736;13.926;2023-02-11T22:55:11;98971.69;;;-2.11;100.00
52983;BME280;48698;45.736;13.926;2023-02-11T23:00:14;99015.25;;;-1.58;100.00
52983;BME280;48698;45.736;13.926;2023-02-11T23:05:19;99071.75;;;-1.55;100.00
52983;BME280;48698;45.736;13.926;2023-02-11T23:10:21;98999.72;;;-1.99;100.00
52983;BME280;48698;45.736;13.926;2023-02-11T23:15:24;99086.03;;;-1.35;100.00
52983;BME280;48698;45.736;13.926;2023-02-11T23:20:27;98930.16;;;-2.06;100.00
52983;BME280;48698;45.736;13.926;2023-02-11T23:25:42;99048.09;;;-1.67;100.00
52983;BME280;48698;45.736;13.926;2023-02-11T23:30:45;99055.31;;;-1.52;100.00
52983;BME280;48698;45.736;13.926;2023-02-11T23:35:47;98975.63;;;-2.31;100.00
52983;BME280;48698;45.736;13.926;2023-02-11T23:40:50;98753.41;;;-3.71;100.00
52983;BME280;48698;45.736;13.926;2023-02-11T23:46:04;98973.97;;;-1.84;100.00
52983;BME280;48698;45.736;13.926;2023-02-11T23:51:07;98907.69;;;-2.45;100.00
52983;BME280;48698;45.736;13.926;2023-02-11T23:56:13;99053.38;;;-2.06;100.00
